createdAt,value
2022-08-12T00:00:44.928Z,2.03
2022-08-12T00:03:31.665Z,2.13
2022-08-12T00:06:19.248Z,1.90
2022-08-12T00:09:06.241Z,2.13
2022-08-12T00:11:53.874Z,2.03
2022-08-12T00:14:41.721Z,2.17
2022-08-12T00:17:29.045Z,2.00
2022-08-12T00:20:18.359Z,1.70
2022-08-12T00:23:07.764Z,2.15
2022-08-12T00:26:21.875Z,1.98
2022-08-12T00:29:12.495Z,1.90
2022-08-12T00:32:01.421Z,1.90
2022-08-12T00:34:51.707Z,1.98
2022-08-12T00:37:39.975Z,2.00
2022-08-12T00:40:28.992Z,1.92
2022-08-12T00:42:58.077Z,2.38
2022-08-12T00:45:27.249Z,1.88
2022-08-12T00:47:55.789Z,1.98
2022-08-12T00:50:25.915Z,1.83
2022-08-12T00:52:54.150Z,1.50
2022-08-12T00:55:22.226Z,1.98
2022-08-12T00:57:52.145Z,2.00
2022-08-12T01:00:23.296Z,2.13
2022-08-12T01:05:42.381Z,1.90
2022-08-12T01:08:29.739Z,1.95
2022-08-12T01:11:17.097Z,1.90
2022-08-12T01:13:50.057Z,2.00
2022-08-12T01:16:22.841Z,2.00
2022-08-12T01:18:53.986Z,1.95
2022-08-12T01:21:28.182Z,1.98
2022-08-12T01:24:31.036Z,1.85
2022-08-12T01:27:07.646Z,1.75
2022-08-12T01:29:44.196Z,1.80
2022-08-12T01:32:15.341Z,2.00
2022-08-12T01:37:22.666Z,1.73
2022-08-12T01:40:33.207Z,2.03
2022-08-12T01:42:49.603Z,2.25
2022-08-12T01:45:25.171Z,1.70
2022-08-12T01:48:06.103Z,1.98
2022-08-12T01:51:00.528Z,1.80
2022-08-12T01:53:59.122Z,2.42
2022-08-12T01:56:35.255Z,2.40
2022-08-12T01:59:23.661Z,2.17
2022-08-12T02:01:57.323Z,1.73
2022-08-12T02:05:07.905Z,1.92
2022-08-12T02:08:52.125Z,1.70
2022-08-12T02:11:29.405Z,1.95
2022-08-12T02:14:13.123Z,1.83
2022-08-12T02:16:54.331Z,2.08
2022-08-12T02:22:24.735Z,1.90
2022-08-12T02:24:56.903Z,1.70
2022-08-12T02:27:28.131Z,1.70
2022-08-12T02:32:24.401Z,2.03
2022-08-12T02:34:53.016Z,2.10
2022-08-12T02:37:23.853Z,2.00
2022-08-12T02:39:54.026Z,1.85
2022-08-12T02:42:24.053Z,2.60
2022-08-12T02:44:53.635Z,2.05
2022-08-12T02:48:00.252Z,2.20
2022-08-12T02:50:14.918Z,2.03
2022-08-12T02:52:43.138Z,2.30
2022-08-12T02:55:28.647Z,2.10
2022-08-12T02:58:12.665Z,2.10
2022-08-12T03:00:44.506Z,1.75
2022-08-12T03:03:15.296Z,2.55
2022-08-12T03:06:00.085Z,2.22
2022-08-12T03:08:35.434Z,2.50
2022-08-12T03:11:14.643Z,2.60
2022-08-12T03:13:58.213Z,2.63
2022-08-12T03:16:30.478Z,2.10
2022-08-12T03:19:01.779Z,2.20
2022-08-12T03:21:52.798Z,2.25
2022-08-12T03:24:18.984Z,2.03
2022-08-12T03:26:49.464Z,2.30
2022-08-12T03:29:17.955Z,2.10
2022-08-12T03:31:47.115Z,2.50
2022-08-12T03:34:23.837Z,2.20
2022-08-12T03:36:55.328Z,2.30
2022-08-12T03:39:41.719Z,2.30
2022-08-12T03:42:22.546Z,2.60
2022-08-12T03:45:28.924Z,2.30
2022-08-12T03:48:27.798Z,2.80
2022-08-12T03:51:16.031Z,2.40
2022-08-12T03:54:03.142Z,2.20
2022-08-12T03:56:51.887Z,2.85
2022-08-12T04:00:11.547Z,2.47
2022-08-12T04:03:01.912Z,2.78
2022-08-12T04:05:54.646Z,2.70
2022-08-12T04:08:23.191Z,2.75
2022-08-12T04:11:09.929Z,3.13
2022-08-12T04:13:37.952Z,2.50
2022-08-12T04:16:08.325Z,2.65
2022-08-12T04:18:38.924Z,2.50
2022-08-12T04:23:47.619Z,2.83
2022-08-12T04:26:17.091Z,2.60
2022-08-12T04:28:45.246Z,2.60
2022-08-12T04:31:14.694Z,2.10
2022-08-12T04:33:44.217Z,2.75
2022-08-12T04:36:12.205Z,2.60
2022-08-12T04:38:40.723Z,2.47
2022-08-12T04:41:11.352Z,2.42
2022-08-12T04:43:53.815Z,2.35
2022-08-12T04:46:33.589Z,2.40
2022-08-12T04:49:03.411Z,2.60
2022-08-12T04:51:31.936Z,2.35
2022-08-12T04:54:01.534Z,2.70
2022-08-12T04:56:29.986Z,2.90
2022-08-12T04:59:05.760Z,2.53
2022-08-12T05:01:34.277Z,2.57
2022-08-12T05:04:03.076Z,2.92
2022-08-12T05:06:31.285Z,2.60
2022-08-12T05:09:00.976Z,2.63
2022-08-12T05:11:39.911Z,2.38
2022-08-12T05:14:22.537Z,2.40
2022-08-12T05:16:50.799Z,2.90
2022-08-12T05:19:22.499Z,3.33
2022-08-12T05:21:50.897Z,2.72
2022-08-12T05:24:19.187Z,2.95
2022-08-12T05:26:48.011Z,2.67
2022-08-12T05:30:06.894Z,3.47
2022-08-12T05:32:08.617Z,2.72
2022-08-12T05:34:36.501Z,3.10
2022-08-12T05:37:04.716Z,2.85
2022-08-12T05:39:35.919Z,2.92
2022-08-12T05:42:04.602Z,2.70
2022-08-12T05:44:32.435Z,2.88
2022-08-12T05:47:03.811Z,2.65
2022-08-12T05:49:33.984Z,2.83
2022-08-12T05:52:03.072Z,2.63
2022-08-12T05:54:54.439Z,2.67
2022-08-12T05:57:19.321Z,2.80
2022-08-12T05:59:47.725Z,2.35
2022-08-12T06:02:15.779Z,2.90
2022-08-12T06:04:43.959Z,3.05
2022-08-12T06:08:02.118Z,2.95
2022-08-12T06:10:01.315Z,2.83
2022-08-12T06:12:29.236Z,3.03
2022-08-12T06:14:57.816Z,2.78
2022-08-12T06:17:26.242Z,2.80
2022-08-12T06:20:27.353Z,3.97
2022-08-12T06:22:44.177Z,2.60
2022-08-12T06:25:22.002Z,3.05
2022-08-12T06:28:07.357Z,3.53
2022-08-12T06:30:39.588Z,3.30
2022-08-12T06:33:21.939Z,4.15
2022-08-12T06:35:52.332Z,2.83
2022-08-12T06:38:27.325Z,3.00
2022-08-12T06:41:19.143Z,2.90
2022-08-12T06:44:06.248Z,3.08
2022-08-12T06:46:39.716Z,3.20
2022-08-12T06:49:08.944Z,3.00
2022-08-12T06:51:36.735Z,2.80
2022-08-12T06:54:04.635Z,3.35
2022-08-12T06:57:03.485Z,2.63
2022-08-12T06:59:21.765Z,3.00
2022-08-12T07:01:51.108Z,2.40
2022-08-12T07:04:37.982Z,3.00
2022-08-12T07:07:10.896Z,2.72
2022-08-12T07:10:03.719Z,2.78
2022-08-12T07:12:31.456Z,3.05
2022-08-12T07:15:01.944Z,2.80
2022-08-12T07:20:29.505Z,2.63
2022-08-12T07:22:59.456Z,2.55
2022-08-12T07:25:46.097Z,2.42
2022-08-12T07:28:16.392Z,2.33
2022-08-12T07:30:48.745Z,2.70
2022-08-12T07:33:18.853Z,2.30
2022-08-12T07:35:51.342Z,2.10
2022-08-12T07:38:33.800Z,2.10
2022-08-12T07:41:02.839Z,2.05
2022-08-12T07:43:33.003Z,1.90
2022-08-12T07:46:02.306Z,2.22
2022-08-12T07:48:40.973Z,1.88
2022-08-12T07:51:09.843Z,2.08
2022-08-12T07:53:54.850Z,2.20
2022-08-12T07:56:31.577Z,2.00
2022-08-12T07:59:25.783Z,1.90
2022-08-12T08:01:54.218Z,2.25
2022-08-12T08:04:40.538Z,1.95
2022-08-12T08:07:09.717Z,1.88
2022-08-12T08:09:39.422Z,2.00
2022-08-12T08:12:26.033Z,2.00
2022-08-12T08:14:56.186Z,1.83
2022-08-12T08:17:26.069Z,1.90
2022-08-12T08:20:02.479Z,1.92
2022-08-12T08:22:42.071Z,2.10
2022-08-12T08:25:20.390Z,1.80
2022-08-12T08:28:08.877Z,1.70
2022-08-12T08:30:39.013Z,1.63
2022-08-12T08:33:22.835Z,1.60
2022-08-12T08:35:54.292Z,1.50
2022-08-12T08:38:33.049Z,1.73
2022-08-12T08:42:19.374Z,1.83
2022-08-12T08:44:12.902Z,1.77
2022-08-12T08:47:01.467Z,1.75
2022-08-12T08:49:29.517Z,1.70
2022-08-12T08:51:57.659Z,1.90
2022-08-12T08:54:25.595Z,1.50
2022-08-12T08:57:15.283Z,2.03
2022-08-12T08:59:44.714Z,1.58
2022-08-12T09:02:20.174Z,1.80
2022-08-12T09:05:11.903Z,1.85
2022-08-12T09:08:12.904Z,1.50
2022-08-12T09:10:45.188Z,1.67
2022-08-12T09:16:20.375Z,1.77
2022-08-12T09:18:52.189Z,1.90
2022-08-12T09:21:23.217Z,1.80
2022-08-12T09:23:58.696Z,1.65
2022-08-12T09:26:38.137Z,1.83
2022-08-12T09:30:11.757Z,1.70
2022-08-12T09:32:31.379Z,1.75
2022-08-12T09:34:58.178Z,1.80
2022-08-12T09:37:28.621Z,2.00
2022-08-12T09:40:57.988Z,1.90
2022-08-12T09:43:26.082Z,1.77
2022-08-12T09:46:06.105Z,1.75
2022-08-12T09:48:56.253Z,1.80
2022-08-12T09:51:38.372Z,1.90
2022-08-12T09:54:31.711Z,1.73
2022-08-12T09:58:07.287Z,1.90
2022-08-12T10:00:16.323Z,1.70
2022-08-12T10:03:06.246Z,2.00
2022-08-12T10:06:26.671Z,2.00
2022-08-12T10:08:33.182Z,1.98
2022-08-12T10:11:22.735Z,1.75
2022-08-12T10:13:54.362Z,1.80
2022-08-12T10:16:24.312Z,1.73
2022-08-12T10:19:02.830Z,1.63
2022-08-12T10:21:39.995Z,1.88
2022-08-12T10:24:09.483Z,1.83
2022-08-12T10:26:58.045Z,1.90
2022-08-12T10:30:03.909Z,1.70
2022-08-12T10:32:44.431Z,1.63
2022-08-12T10:35:16.836Z,1.70
2022-08-12T10:38:32.279Z,1.70
2022-08-12T10:40:55.265Z,1.58
2022-08-12T10:43:55.634Z,1.63
2022-08-12T10:46:30.867Z,1.70
2022-08-12T10:50:02.220Z,1.95
2022-08-12T10:52:34.758Z,1.50
2022-08-12T10:55:06.991Z,1.70
2022-08-12T10:58:15.324Z,1.90
2022-08-12T11:00:35.813Z,1.60
2022-08-12T11:04:22.496Z,1.80
2022-08-12T11:07:05.240Z,1.77
2022-08-12T11:08:55.106Z,1.70
2022-08-12T11:12:07.502Z,1.52
2022-08-12T11:14:50.415Z,1.80
2022-08-12T11:17:43.462Z,1.83
2022-08-12T11:20:02.265Z,1.70
2022-08-12T11:22:32.358Z,1.85
2022-08-12T11:25:01.032Z,1.80
2022-08-12T11:27:38.785Z,1.80
2022-08-12T11:30:30.546Z,1.70
2022-08-12T11:32:55.940Z,1.75
2022-08-12T11:35:25.582Z,1.70
2022-08-12T11:38:02.072Z,1.70
2022-08-12T11:40:30.304Z,1.83
2022-08-12T11:43:18.912Z,1.75
2022-08-12T11:45:53.281Z,1.70
2022-08-12T11:48:27.175Z,1.90
2022-08-12T11:50:58.334Z,2.00
2022-08-12T11:53:57.015Z,2.08
2022-08-12T11:56:14.661Z,1.98
2022-08-12T12:01:58.750Z,1.80
2022-08-12T12:04:28.826Z,1.60
2022-08-12T12:08:36.510Z,1.77
2022-08-12T12:10:20.298Z,1.75
2022-08-12T12:12:50.245Z,1.90
2022-08-12T12:15:25.406Z,1.77
2022-08-12T12:18:07.306Z,1.67
2022-08-12T12:20:40.925Z,2.22
2022-08-12T12:23:28.793Z,1.83
2022-08-12T12:26:06.723Z,2.17
2022-08-12T12:28:39.737Z,1.85
2022-08-12T12:31:15.106Z,1.55
2022-08-12T12:33:57.295Z,1.50
2022-08-12T12:36:32.025Z,1.70
2022-08-12T12:39:06.546Z,1.77
2022-08-12T12:42:43.854Z,1.77
2022-08-12T12:44:38.603Z,1.70
2022-08-12T12:47:29.105Z,1.80
2022-08-12T12:49:58.608Z,1.70
2022-08-12T12:52:26.994Z,1.58
2022-08-12T12:54:56.014Z,1.98
2022-08-12T12:57:59.354Z,1.77
2022-08-12T13:00:20.749Z,1.80
2022-08-12T13:02:54.034Z,1.60
2022-08-12T13:05:27.821Z,1.42
2022-08-12T13:08:00.648Z,2.08
2022-08-12T13:10:36.569Z,1.90
2022-08-12T13:14:06.510Z,1.70
2022-08-12T13:15:59.414Z,2.03
2022-08-12T13:18:36.609Z,1.80
2022-08-12T13:21:15.893Z,1.95
2022-08-12T13:23:58.117Z,2.08
2022-08-12T13:26:26.115Z,1.65
2022-08-12T13:28:55.930Z,1.95
2022-08-12T13:34:33.947Z,1.80
2022-08-12T13:36:47.504Z,1.60
2022-08-12T13:39:16.140Z,1.92
2022-08-12T13:41:44.819Z,2.05
2022-08-12T13:44:13.382Z,1.67
2022-08-12T13:46:42.405Z,1.77
2022-08-12T13:49:17.635Z,1.73
2022-08-12T13:52:02.154Z,1.80
2022-08-12T13:54:31.338Z,2.15
2022-08-12T13:56:59.332Z,2.15
2022-08-12T13:59:28.846Z,2.10
2022-08-12T14:02:16.608Z,1.90
2022-08-12T14:04:55.964Z,5.25
2022-08-12T14:07:26.020Z,4.63
2022-08-12T14:10:16.322Z,3.88
2022-08-12T14:12:54.019Z,1.95
2022-08-12T14:15:36.686Z,2.90
2022-08-12T14:18:08.426Z,4.55
2022-08-12T14:20:37.212Z,2.78
2022-08-12T14:24:01.472Z,4.68
2022-08-12T14:26:00.881Z,3.00
2022-08-12T14:28:57.619Z,2.13
2022-08-12T14:31:32.722Z,2.70
2022-08-12T14:34:04.803Z,2.20
2022-08-12T14:39:06.556Z,1.80
2022-08-12T14:41:48.387Z,2.03
2022-08-12T14:44:58.217Z,3.08
2022-08-12T14:47:08.994Z,3.40
2022-08-12T14:50:37.455Z,2.20
2022-08-12T14:52:58.846Z,1.70
2022-08-12T14:58:03.419Z,2.17
2022-08-12T15:00:52.351Z,2.20
2022-08-12T15:03:52.713Z,2.20
2022-08-12T15:06:43.841Z,1.85
2022-08-12T15:09:08.041Z,1.83
2022-08-12T15:11:54.811Z,2.33
2022-08-12T15:14:27.704Z,1.75
2022-08-12T15:16:59.927Z,2.00
2022-08-12T15:20:12.102Z,2.00
2022-08-12T15:22:37.373Z,1.75
2022-08-12T15:25:09.216Z,2.30
2022-08-12T15:28:11.105Z,3.20
2022-08-12T15:30:32.323Z,2.00
2022-08-12T15:33:12.893Z,1.88
2022-08-12T15:35:52.917Z,2.20
2022-08-12T15:38:25.984Z,1.98
2022-08-12T15:40:56.776Z,2.00
2022-08-12T15:44:15.939Z,1.80
2022-08-12T15:46:21.247Z,2.00
2022-08-12T15:48:53.778Z,2.20
2022-08-12T15:51:58.448Z,2.10
2022-08-12T15:54:33.544Z,2.10
2022-08-12T15:57:07.796Z,2.00
2022-08-12T16:00:00.859Z,2.28
2022-08-12T16:02:29.431Z,2.60
2022-08-12T16:04:58.699Z,2.33
2022-08-12T16:07:31.179Z,2.40
2022-08-12T16:10:05.905Z,2.28
2022-08-12T16:13:11.785Z,2.40
2022-08-12T16:16:01.518Z,2.35
2022-08-12T16:18:35.818Z,2.70
2022-08-12T16:21:11.236Z,2.60
2022-08-12T16:23:59.815Z,2.30
2022-08-12T16:26:35.140Z,2.20
2022-08-12T16:29:14.616Z,2.08
2022-08-12T16:31:45.356Z,2.20
2022-08-12T16:34:26.095Z,2.00
2022-08-12T16:37:08.889Z,2.05
2022-08-12T16:40:01.308Z,2.22
2022-08-12T16:42:28.852Z,2.35
2022-08-12T16:45:00.051Z,2.47
2022-08-12T16:47:57.274Z,2.22
2022-08-12T16:50:20.044Z,2.22
2022-08-12T16:52:52.262Z,2.05
2022-08-12T16:55:24.777Z,1.98
2022-08-12T16:57:56.627Z,2.13
2022-08-12T17:00:25.313Z,2.10
2022-08-12T17:02:58.094Z,2.20
2022-08-12T17:05:31.358Z,1.90
2022-08-12T17:08:01.216Z,2.08
2022-08-12T17:10:36.546Z,1.90
2022-08-12T17:13:10.305Z,2.03
2022-08-12T17:15:57.612Z,2.28
2022-08-12T17:18:42.555Z,2.17
2022-08-12T17:21:17.387Z,2.08
2022-08-12T17:23:53.780Z,2.92
2022-08-12T17:26:30.800Z,2.60
2022-08-12T17:29:00.559Z,6.25
2022-08-12T17:32:00.357Z,4.07
2022-08-12T17:34:38.432Z,7.38
2022-08-12T17:37:07.530Z,8.50
2022-08-12T17:40:06.460Z,7.22
2022-08-12T17:42:32.496Z,7.32
2022-08-12T17:45:18.440Z,5.32
2022-08-12T17:48:04.569Z,3.80
2022-08-12T17:50:36.118Z,3.88
2022-08-12T17:53:04.835Z,3.33
2022-08-12T17:55:43.456Z,2.95
2022-08-12T17:58:36.934Z,3.40
2022-08-12T18:01:24.586Z,3.40
2022-08-12T18:04:20.936Z,3.20
2022-08-12T18:06:50.864Z,2.43
2022-08-12T18:09:24.592Z,2.40
2022-08-12T18:15:02.614Z,3.00
2022-08-12T18:17:46.873Z,2.63
2022-08-12T18:20:18.372Z,2.90
2022-08-12T18:22:48.218Z,2.92
2022-08-12T18:26:12.604Z,2.80
2022-08-12T18:28:29.354Z,2.60
2022-08-12T18:31:03.198Z,2.97
2022-08-12T18:33:43.828Z,2.95
2022-08-12T18:36:22.389Z,3.15
2022-08-12T18:38:56.232Z,3.42
2022-08-12T18:41:34.487Z,2.90
2022-08-12T18:44:11.045Z,3.45
2022-08-12T18:46:58.257Z,3.30
2022-08-12T18:49:33.386Z,3.30
2022-08-12T18:52:08.226Z,3.07
2022-08-12T18:54:49.344Z,2.85
2022-08-12T18:57:45.870Z,2.90
2022-08-12T19:00:21.509Z,3.17
2022-08-12T19:02:53.457Z,2.90
2022-08-12T19:05:53.173Z,3.72
2022-08-12T19:08:15.098Z,3.25
2022-08-12T19:10:50.112Z,3.25
2022-08-12T19:13:39.749Z,3.22
2022-08-12T19:16:11.393Z,4.05
2022-08-12T19:18:49.581Z,3.75
2022-08-12T19:21:20.473Z,3.50
2022-08-12T19:24:09.172Z,4.80
2022-08-12T19:26:38.816Z,4.10
2022-08-12T19:29:11.092Z,4.32
2022-08-12T19:31:58.724Z,4.38
2022-08-12T19:38:02.705Z,3.85
2022-08-12T19:40:31.525Z,3.67
2022-08-12T19:43:19.017Z,3.35
2022-08-12T19:45:51.683Z,3.30
2022-08-12T19:48:22.518Z,3.00
2022-08-12T19:50:53.767Z,3.45
2022-08-12T19:53:23.470Z,3.20
2022-08-12T19:55:55.980Z,3.03
2022-08-12T19:58:26.784Z,3.17
2022-08-12T20:00:55.873Z,2.80
2022-08-12T20:03:38.997Z,3.20
2022-08-12T20:06:15.782Z,3.38
2022-08-12T20:08:56.779Z,3.70
2022-08-12T20:12:15.041Z,3.10
2022-08-12T20:14:34.693Z,2.85
2022-08-12T20:17:06.285Z,3.05
2022-08-12T20:20:16.766Z,2.65
2022-08-12T20:22:31.705Z,3.33
2022-08-12T20:25:11.911Z,2.85
2022-08-12T20:28:04.525Z,3.10
2022-08-12T20:30:53.698Z,3.33
2022-08-12T20:33:23.222Z,3.00
2022-08-12T20:36:13.992Z,2.97
2022-08-12T20:38:52.654Z,2.95
2022-08-12T20:41:23.958Z,2.83
2022-08-12T20:43:55.279Z,2.72
2022-08-12T20:46:29.769Z,3.20
2022-08-12T20:49:17.172Z,3.38
2022-08-12T20:51:54.908Z,3.05
2022-08-12T20:54:32.510Z,3.13
2022-08-12T20:57:10.041Z,3.08
2022-08-12T20:59:41.881Z,3.20
2022-08-12T21:02:16.492Z,3.85
2022-08-12T21:05:16.398Z,3.00
2022-08-12T21:10:26.458Z,3.20
2022-08-12T21:12:55.009Z,2.80
2022-08-12T21:15:30.617Z,3.08
2022-08-12T21:18:27.201Z,2.50
2022-08-12T21:21:00.045Z,3.25
2022-08-12T21:23:30.558Z,2.80
2022-08-12T21:26:12.431Z,3.13
2022-08-12T21:28:56.813Z,3.03
2022-08-12T21:32:40.193Z,3.08
2022-08-12T21:34:26.137Z,2.60
2022-08-12T21:37:12.843Z,3.10
2022-08-12T21:39:41.420Z,2.90
2022-08-12T21:42:21.176Z,2.70
2022-08-12T21:45:45.684Z,3.08
2022-08-12T21:47:44.922Z,2.78
2022-08-12T21:50:14.407Z,2.72
2022-08-12T21:52:43.799Z,2.72
2022-08-12T21:55:20.403Z,3.13
2022-08-12T21:57:54.282Z,3.07
2022-08-12T22:00:35.276Z,2.97
2022-08-12T22:04:03.693Z,3.30
2022-08-12T22:06:26.075Z,2.60
2022-08-12T22:09:02.396Z,3.22
2022-08-12T22:11:41.694Z,2.53
2022-08-12T22:14:21.490Z,2.63
2022-08-12T22:16:54.162Z,2.90
2022-08-12T22:19:22.988Z,3.00
2022-08-12T22:21:53.946Z,3.10
2022-08-12T22:24:27.131Z,2.55
2022-08-12T22:27:17.961Z,2.80
2022-08-12T22:30:07.190Z,2.42
2022-08-12T22:32:47.669Z,3.15
2022-08-12T22:35:56.753Z,2.90
2022-08-12T22:38:24.801Z,3.05
2022-08-12T22:41:00.689Z,2.80
2022-08-12T22:43:59.949Z,2.70
2022-08-12T22:46:53.312Z,2.53
2022-08-12T22:49:36.934Z,2.85
2022-08-12T22:52:22.674Z,3.20
2022-08-12T22:55:03.714Z,2.60
2022-08-12T22:57:53.614Z,2.92
2022-08-12T23:00:23.855Z,2.95
2022-08-12T23:02:56.920Z,3.17
2022-08-12T23:06:10.035Z,3.08
2022-08-12T23:08:32.343Z,2.92
2022-08-12T23:13:55.141Z,3.00
2022-08-12T23:16:31.029Z,3.05
2022-08-12T23:19:10.626Z,3.33
2022-08-12T23:23:05.733Z,3.40
2022-08-12T23:24:56.545Z,3.30
2022-08-12T23:27:51.659Z,3.53
2022-08-12T23:30:31.362Z,3.08
2022-08-12T23:33:20.564Z,3.55
2022-08-12T23:36:02.571Z,3.05
2022-08-12T23:38:33.085Z,2.92
2022-08-12T23:41:03.989Z,3.17
2022-08-12T23:43:39.701Z,3.30
2022-08-12T23:46:11.027Z,3.00
2022-08-12T23:48:39.869Z,3.10
2022-08-12T23:51:22.300Z,3.20
2022-08-12T23:53:55.345Z,2.88
2022-08-12T23:56:25.281Z,3.28
2022-08-12T23:58:58.549Z,3.03
